createdAt,value
2019-01-05T00:00:39.349Z,28.40
2019-01-05T00:03:35.319Z,34.90
2019-01-05T00:06:28.697Z,27.60
2019-01-05T00:12:33.533Z,26.17
2019-01-05T00:15:42.252Z,39.73
2019-01-05T00:18:49.420Z,32.27
2019-01-05T00:21:49.717Z,26.83
2019-01-05T00:24:50.051Z,20.77
2019-01-05T00:27:53.469Z,25.60
2019-01-05T00:30:53.619Z,39.70
2019-01-05T00:33:53.109Z,31.73
2019-01-05T00:36:52.761Z,22.90
2019-01-05T00:39:52.207Z,36.67
2019-01-05T00:42:55.023Z,28.27
2019-01-05T00:45:52.601Z,21.70
2019-01-05T00:51:51.776Z,19.13
2019-01-05T00:54:53.698Z,20.00
2019-01-05T00:57:53.886Z,15.63
2019-01-05T01:00:53.628Z,17.13
2019-01-05T01:03:53.213Z,14.97
2019-01-05T01:06:52.724Z,18.40
2019-01-05T01:09:52.941Z,18.00
2019-01-05T01:12:52.531Z,14.03
2019-01-05T01:15:55.048Z,18.70
2019-01-05T01:18:54.585Z,23.40
2019-01-05T01:21:54.058Z,20.13
2019-01-05T01:24:42.098Z,14.83
2019-01-05T01:27:49.382Z,20.87
2019-01-05T01:30:49.437Z,19.50
2019-01-05T01:33:46.551Z,17.77
2019-01-05T01:36:46.380Z,20.87
2019-01-05T01:39:46.340Z,25.93
2019-01-05T01:42:41.893Z,20.43
2019-01-05T01:45:42.236Z,16.63
2019-01-05T01:48:41.839Z,18.03
2019-01-05T01:51:47.342Z,23.30
2019-01-05T01:54:45.769Z,28.87
2019-01-05T01:57:48.300Z,20.83
2019-01-05T02:00:41.669Z,21.50
2019-01-05T02:03:29.903Z,23.30
2019-01-05T02:06:32.628Z,25.67
2019-01-05T02:09:37.925Z,35.60
2019-01-05T02:12:35.935Z,23.97
2019-01-05T02:15:36.179Z,25.47
2019-01-05T02:18:32.918Z,22.23
2019-01-05T02:22:01.813Z,21.87
2019-01-05T02:25:01.346Z,22.67
2019-01-05T02:28:00.930Z,24.43
2019-01-05T02:31:00.528Z,23.27
2019-01-05T02:36:56.989Z,25.10
2019-01-05T02:39:59.169Z,24.23
2019-01-05T02:43:25.507Z,20.73
2019-01-05T02:46:51.208Z,13.90
2019-01-05T02:49:48.646Z,19.50
2019-01-05T02:52:48.895Z,16.80
2019-01-05T02:56:15.183Z,16.57
2019-01-05T02:59:18.192Z,21.67
2019-01-05T03:02:11.581Z,11.73
2019-01-05T03:05:03.078Z,23.20
2019-01-05T03:08:03.464Z,13.77
2019-01-05T03:11:03.046Z,12.57
2019-01-05T03:14:02.585Z,21.30
2019-01-05T03:16:55.669Z,22.37
2019-01-05T03:19:55.644Z,23.10
2019-01-05T03:22:55.277Z,21.77
2019-01-05T03:25:54.916Z,23.17
2019-01-05T03:28:54.387Z,26.90
2019-01-05T03:31:54.626Z,25.67
2019-01-05T03:34:54.406Z,18.67
2019-01-05T03:37:50.004Z,17.43
2019-01-05T03:40:54.610Z,17.00
2019-01-05T03:44:15.224Z,21.37
2019-01-05T03:47:14.718Z,20.33
2019-01-05T03:50:15.039Z,16.47
2019-01-05T03:53:14.621Z,14.20
2019-01-05T03:56:09.219Z,17.50
2019-01-05T03:59:10.608Z,19.37
2019-01-05T04:02:10.456Z,13.27
2019-01-05T04:05:16.372Z,10.03
2019-01-05T04:08:16.130Z,13.07
2019-01-05T04:11:15.565Z,12.53
2019-01-05T04:14:09.572Z,13.13
2019-01-05T04:17:09.841Z,15.93
2019-01-05T04:20:09.479Z,13.00
2019-01-05T04:23:07.167Z,16.10
2019-01-05T04:26:06.630Z,16.60
2019-01-05T04:29:08.541Z,10.87
2019-01-05T04:32:11.005Z,13.13
2019-01-05T04:35:10.493Z,13.60
2019-01-05T04:38:10.784Z,15.10
2019-01-05T04:41:03.606Z,17.73
2019-01-05T04:44:05.356Z,13.03
2019-01-05T04:47:08.031Z,14.53
2019-01-05T04:50:13.308Z,12.20
2019-01-05T04:53:12.862Z,13.93
2019-01-05T05:00:08.027Z,15.03
2019-01-05T05:03:07.811Z,16.63
2019-01-05T05:06:07.272Z,13.37
2019-01-05T05:09:01.334Z,12.50
2019-01-05T05:12:00.843Z,16.53
2019-01-05T05:15:01.048Z,15.13
2019-01-05T05:18:01.605Z,13.87
2019-01-05T05:24:27.872Z,17.13
2019-01-05T05:27:54.168Z,13.17
2019-01-05T05:30:54.272Z,14.17
2019-01-05T05:33:54.554Z,16.17
2019-01-05T05:36:57.792Z,18.97
2019-01-05T05:40:00.929Z,15.57
2019-01-05T05:43:00.712Z,13.47
2019-01-05T05:46:00.115Z,19.23
2019-01-05T05:49:26.440Z,15.30
2019-01-05T05:52:52.756Z,13.30
2019-01-05T05:55:48.401Z,19.60
2019-01-05T05:58:47.255Z,13.77
2019-01-05T06:01:47.323Z,15.93
2019-01-05T06:04:46.796Z,12.87
2019-01-05T06:07:46.218Z,13.50
2019-01-05T06:10:45.807Z,14.47
2019-01-05T06:13:45.625Z,15.23
2019-01-05T06:16:45.093Z,16.87
2019-01-05T06:19:36.987Z,21.40
2019-01-05T06:22:36.780Z,13.07
2019-01-05T06:26:03.067Z,9.80
2019-01-05T06:29:02.616Z,14.17
2019-01-05T06:32:02.844Z,14.97
2019-01-05T06:35:02.550Z,11.27
2019-01-05T06:38:08.776Z,13.83
2019-01-05T06:41:08.478Z,12.40
2019-01-05T06:47:51.936Z,11.13
2019-01-05T06:51:18.197Z,11.53
2019-01-05T06:54:18.281Z,14.90
2019-01-05T06:57:21.332Z,13.83
2019-01-05T07:00:21.041Z,14.57
2019-01-05T07:03:20.840Z,15.37
2019-01-05T07:06:20.333Z,13.53
2019-01-05T07:09:20.540Z,13.30
2019-01-05T07:12:20.673Z,10.43
2019-01-05T07:15:25.955Z,11.87
2019-01-05T07:21:30.118Z,11.70
2019-01-05T07:27:42.234Z,12.07
2019-01-05T07:30:47.552Z,11.47
2019-01-05T07:33:50.069Z,12.70
2019-01-05T07:36:49.782Z,13.37
2019-01-05T07:39:49.217Z,14.57
2019-01-05T07:42:51.856Z,9.90
2019-01-05T07:45:54.139Z,11.60
2019-01-05T07:48:57.232Z,15.47
2019-01-05T07:51:56.754Z,12.93
2019-01-05T07:54:53.136Z,12.13
2019-01-05T07:58:19.456Z,14.53
2019-01-05T08:01:19.211Z,12.63
2019-01-05T08:04:46.901Z,13.50
2019-01-05T08:08:13.224Z,13.57
2019-01-05T08:11:20.764Z,10.83
2019-01-05T08:14:40.588Z,10.57
2019-01-05T08:17:38.238Z,9.87
2019-01-05T08:21:03.251Z,8.87
2019-01-05T08:24:29.735Z,7.57
2019-01-05T08:27:56.036Z,12.30
2019-01-05T08:30:55.857Z,8.33
2019-01-05T08:33:55.669Z,8.13
2019-01-05T08:37:19.280Z,5.97
2019-01-05T08:40:41.579Z,5.80
2019-01-05T08:44:07.116Z,7.30
2019-01-05T08:47:48.376Z,8.00
2019-01-05T08:51:18.735Z,4.43
2019-01-05T08:55:01.587Z,5.90
2019-01-05T08:58:47.741Z,6.57
2019-01-05T09:02:32.089Z,8.20
2019-01-05T09:05:59.087Z,6.70
2019-01-05T09:09:15.696Z,3.80
2019-01-05T09:12:55.308Z,7.27
2019-01-05T09:16:36.899Z,9.10
2019-01-05T09:19:56.956Z,9.40
2019-01-05T09:23:22.299Z,8.90
2019-01-05T09:27:20.646Z,6.10
2019-01-05T09:30:31.856Z,7.23
2019-01-05T09:33:57.016Z,5.87
2019-01-05T09:37:26.955Z,6.40
2019-01-05T09:40:54.652Z,7.43
2019-01-05T09:44:28.808Z,7.03
2019-01-05T09:47:55.699Z,8.03
2019-01-05T09:51:10.435Z,6.03
2019-01-05T09:55:01.023Z,9.20
2019-01-05T09:58:37.232Z,6.50
2019-01-05T10:01:56.139Z,9.20
2019-01-05T10:05:38.231Z,6.20
2019-01-05T10:09:03.463Z,5.03
2019-01-05T10:12:28.518Z,5.27
2019-01-05T10:15:36.811Z,8.73
2019-01-05T10:19:05.785Z,8.70
2019-01-05T10:22:36.289Z,6.40
2019-01-05T10:25:58.655Z,10.20
2019-01-05T10:29:31.382Z,8.00
2019-01-05T10:33:16.639Z,6.77
2019-01-05T10:37:00.978Z,6.70
2019-01-05T10:40:40.722Z,8.73
2019-01-05T10:44:07.083Z,8.90
2019-01-05T10:47:22.196Z,10.37
2019-01-05T10:50:42.178Z,10.30
2019-01-05T10:54:07.440Z,7.47
2019-01-05T10:57:39.736Z,8.53
2019-01-05T11:01:08.210Z,7.03
2019-01-05T11:04:43.705Z,9.87
2019-01-05T11:08:25.080Z,10.43
2019-01-05T11:12:09.274Z,9.50
2019-01-05T11:15:14.236Z,11.93
2019-01-05T11:18:42.695Z,7.23
2019-01-05T11:22:15.930Z,9.77
2019-01-05T11:25:40.886Z,7.93
2019-01-05T11:29:10.225Z,7.67
2019-01-05T11:32:15.403Z,9.00
2019-01-05T11:35:41.699Z,6.40
2019-01-05T11:39:35.078Z,8.07
2019-01-05T11:43:10.179Z,12.60
2019-01-05T11:46:28.504Z,6.73
2019-01-05T11:49:36.917Z,8.80
2019-01-05T11:53:01.400Z,10.03
2019-01-05T11:56:21.060Z,8.50
2019-01-05T11:59:51.625Z,9.93
2019-01-05T12:03:24.643Z,11.60
2019-01-05T12:06:50.803Z,6.73
2019-01-05T12:10:15.434Z,11.00
2019-01-05T12:14:14.510Z,7.30
2019-01-05T12:17:47.100Z,10.03
2019-01-05T12:21:12.910Z,7.13
2019-01-05T12:24:32.431Z,9.83
2019-01-05T12:28:09.220Z,8.27
2019-01-05T12:31:35.164Z,9.13
2019-01-05T12:35:24.345Z,8.63
2019-01-05T12:38:40.212Z,5.93
2019-01-05T12:42:26.089Z,10.77
2019-01-05T12:46:12.235Z,7.83
2019-01-05T12:49:40.232Z,10.43
2019-01-05T12:53:21.962Z,11.07
2019-01-05T12:56:48.090Z,8.87
2019-01-05T13:00:11.328Z,14.00
2019-01-05T13:03:33.704Z,9.30
2019-01-05T13:07:19.597Z,9.03
2019-01-05T13:10:53.209Z,12.57
2019-01-05T13:14:26.072Z,10.40
2019-01-05T13:17:54.227Z,16.20
2019-01-05T13:21:14.148Z,8.33
2019-01-05T13:25:09.948Z,10.17
2019-01-05T13:28:25.916Z,11.00
2019-01-05T13:31:49.626Z,13.03
2019-01-05T13:35:24.420Z,9.67
2019-01-05T13:39:03.816Z,8.13
2019-01-05T13:42:37.190Z,10.37
2019-01-05T13:46:03.750Z,10.33
2019-01-05T13:49:41.170Z,10.20
2019-01-05T13:52:56.542Z,8.90
2019-01-05T13:56:29.427Z,6.83
2019-01-05T13:59:23.934Z,8.30
2019-01-05T14:02:11.363Z,10.77
2019-01-05T14:04:59.727Z,10.27
2019-01-05T14:07:46.501Z,10.17
2019-01-05T14:10:33.325Z,10.93
2019-01-05T14:13:20.417Z,10.00
2019-01-05T14:16:08.766Z,14.00
2019-01-05T14:19:01.019Z,11.67
2019-01-05T14:21:44.667Z,11.50
2019-01-05T14:24:41.888Z,13.57
2019-01-05T14:27:39.273Z,9.43
2019-01-05T14:30:27.779Z,10.17
2019-01-05T14:33:13.448Z,12.30
2019-01-05T14:36:10.376Z,11.47
2019-01-05T14:39:01.588Z,9.20
2019-01-05T14:42:07.707Z,9.93
2019-01-05T14:44:53.066Z,8.77
2019-01-05T14:47:40.131Z,9.53
2019-01-05T14:50:28.697Z,8.67
2019-01-05T14:53:25.427Z,12.73
2019-01-05T14:56:21.841Z,11.03
2019-01-05T14:59:25.512Z,10.03
2019-01-05T15:02:18.348Z,11.17
2019-01-05T15:05:21.622Z,9.10
2019-01-05T15:08:10.038Z,10.37
2019-01-05T15:11:01.181Z,12.57
2019-01-05T15:14:05.168Z,13.73
2019-01-05T15:16:48.821Z,8.83
2019-01-05T15:19:38.083Z,10.47
2019-01-05T15:22:19.466Z,10.93
2019-01-05T15:25:05.824Z,7.93
2019-01-05T15:28:02.953Z,7.83
2019-01-05T15:31:00.092Z,10.63
2019-01-05T15:33:48.312Z,14.07
2019-01-05T15:36:54.537Z,12.10
2019-01-05T15:39:41.476Z,10.70
2019-01-05T15:42:26.814Z,12.63
2019-01-05T15:45:24.969Z,9.03
2019-01-05T15:48:14.651Z,11.67
2019-01-05T15:51:02.540Z,8.53
2019-01-05T15:53:49.532Z,12.30
2019-01-05T15:56:35.954Z,10.20
2019-01-05T15:59:36.157Z,10.47
2019-01-05T16:02:36.411Z,9.90
2019-01-05T16:05:23.406Z,8.70
2019-01-05T16:08:14.030Z,9.10
2019-01-05T16:11:00.583Z,10.23
2019-01-05T16:13:47.299Z,11.13
2019-01-05T16:16:42.640Z,11.87
2019-01-05T16:19:39.828Z,10.00
2019-01-05T16:22:26.767Z,12.53
2019-01-05T16:25:13.431Z,11.23
2019-01-05T16:27:59.995Z,16.30
2019-01-05T16:30:48.056Z,11.00
2019-01-05T16:33:34.797Z,14.37
2019-01-05T16:36:26.469Z,13.27
2019-01-05T16:39:12.902Z,14.43
2019-01-05T16:42:02.806Z,12.67
2019-01-05T16:44:49.316Z,14.07
2019-01-05T16:47:40.383Z,12.17
2019-01-05T16:50:27.259Z,14.07
2019-01-05T16:53:18.334Z,13.43
2019-01-05T16:56:13.371Z,13.70
2019-01-05T16:59:09.056Z,13.10
2019-01-05T17:02:06.187Z,10.87
2019-01-05T17:04:52.897Z,13.63
2019-01-05T17:07:39.156Z,14.47
2019-01-05T17:10:36.823Z,14.53
2019-01-05T17:13:33.031Z,17.00
2019-01-05T17:16:26.651Z,13.53
2019-01-05T17:19:07.757Z,11.33
2019-01-05T17:21:59.506Z,17.63
2019-01-05T17:24:45.919Z,13.40
2019-01-05T17:27:32.566Z,14.27
2019-01-05T17:30:32.726Z,13.60
2019-01-05T17:33:19.110Z,11.63
2019-01-05T17:36:05.700Z,13.17
2019-01-05T17:39:02.889Z,18.00
2019-01-05T17:41:49.599Z,12.70
2019-01-05T17:44:36.180Z,19.13
2019-01-05T17:47:22.547Z,19.30
2019-01-05T17:50:16.578Z,15.10
2019-01-05T17:53:03.043Z,14.07
2019-01-05T17:55:49.892Z,18.13
2019-01-05T17:58:36.616Z,13.40
2019-01-05T18:01:24.875Z,16.43
2019-01-05T18:04:27.746Z,15.10
2019-01-05T18:07:10.519Z,16.50
2019-01-05T18:09:58.439Z,15.80
2019-01-05T18:12:42.114Z,15.80
2019-01-05T18:15:38.975Z,13.23
2019-01-05T18:18:24.821Z,15.57
2019-01-05T18:21:19.117Z,14.10
2019-01-05T18:24:07.200Z,15.67
2019-01-05T18:27:07.358Z,16.00
2019-01-05T18:30:10.466Z,16.60
2019-01-05T18:32:56.826Z,15.37
2019-01-05T18:35:44.859Z,14.30
2019-01-05T18:38:33.782Z,15.13
2019-01-05T18:41:36.982Z,13.97
2019-01-05T18:44:27.787Z,12.90
2019-01-05T18:47:27.645Z,18.53
2019-01-05T18:50:21.947Z,13.43
2019-01-05T18:53:09.977Z,15.30
2019-01-05T18:56:12.668Z,16.83
2019-01-05T18:58:59.127Z,16.20
2019-01-05T19:01:47.836Z,12.53
2019-01-05T19:04:34.685Z,11.37
2019-01-05T19:07:27.603Z,16.20
2019-01-05T19:10:14.185Z,18.27
2019-01-05T19:12:58.241Z,16.43
2019-01-05T19:15:46.248Z,14.87
2019-01-05T19:18:23.272Z,14.27
2019-01-05T19:21:10.057Z,17.30
2019-01-05T19:23:56.684Z,12.97
2019-01-05T19:26:49.310Z,13.27
2019-01-05T19:29:44.067Z,14.43
2019-01-05T19:32:31.449Z,13.53
2019-01-05T19:35:23.221Z,15.13
2019-01-05T19:38:20.901Z,12.47
2019-01-05T19:41:15.568Z,12.93
2019-01-05T19:44:03.463Z,14.13
2019-01-05T19:46:50.676Z,13.43
2019-01-05T19:49:37.713Z,12.47
2019-01-05T19:52:44.698Z,17.03
2019-01-05T19:55:34.995Z,12.13
2019-01-05T19:58:32.771Z,13.93
2019-01-05T20:01:18.877Z,15.07
2019-01-05T20:04:05.839Z,9.77
2019-01-05T20:06:56.588Z,14.53
2019-01-05T20:09:51.561Z,14.87
2019-01-05T20:12:37.257Z,11.07
2019-01-05T20:15:38.324Z,14.17
2019-01-05T20:18:41.985Z,12.77
2019-01-05T20:21:29.645Z,15.43
2019-01-05T20:24:16.656Z,12.57
2019-01-05T20:27:16.260Z,13.50
2019-01-05T20:30:05.055Z,11.80
2019-01-05T20:32:56.258Z,12.57
2019-01-05T20:35:45.473Z,11.47
2019-01-05T20:38:32.776Z,11.27
2019-01-05T20:41:24.431Z,12.67
2019-01-05T20:44:11.154Z,11.50
2019-01-05T20:46:57.911Z,9.43
2019-01-05T20:49:45.436Z,12.20
2019-01-05T20:52:53.245Z,13.77
2019-01-05T20:59:00.767Z,9.57
2019-01-05T21:02:08.521Z,10.53
2019-01-05T21:05:08.931Z,14.83
2019-01-05T21:08:09.564Z,13.70
2019-01-05T21:11:09.774Z,11.40
2019-01-05T21:14:10.053Z,11.37
2019-01-05T21:17:08.354Z,12.90
2019-01-05T21:20:09.191Z,11.03
2019-01-05T21:22:49.655Z,11.23
2019-01-05T21:25:49.820Z,11.23
2019-01-05T21:28:49.702Z,15.70
2019-01-05T21:34:51.471Z,11.77
2019-01-05T21:37:52.008Z,11.80
2019-01-05T21:40:52.354Z,12.10
2019-01-05T21:43:52.918Z,11.00
2019-01-05T21:50:09.494Z,12.43
2019-01-05T21:53:15.162Z,13.80
2019-01-05T21:56:21.451Z,13.70
2019-01-05T21:59:16.805Z,11.83
2019-01-05T22:02:16.664Z,11.97
2019-01-05T22:05:16.266Z,11.00
2019-01-05T22:08:16.914Z,11.90
2019-01-05T22:11:21.204Z,13.63
2019-01-05T22:14:28.312Z,13.20
2019-01-05T22:17:27.933Z,17.03
2019-01-05T22:20:28.271Z,14.10
2019-01-05T22:23:18.257Z,13.23
2019-01-05T22:26:25.436Z,11.40
2019-01-05T22:29:25.554Z,16.97
2019-01-05T22:32:25.038Z,12.00
2019-01-05T22:35:24.823Z,16.63
2019-01-05T22:38:30.508Z,17.17
2019-01-05T22:41:30.381Z,18.30
2019-01-05T22:44:30.622Z,14.43
2019-01-05T22:50:50.208Z,11.20
2019-01-05T22:53:49.866Z,17.90
2019-01-05T22:56:56.241Z,12.17
2019-01-05T22:59:55.868Z,16.90
2019-01-05T23:02:55.589Z,11.53
2019-01-05T23:05:54.988Z,13.87
2019-01-05T23:08:53.948Z,13.37
2019-01-05T23:11:54.301Z,16.77
2019-01-05T23:14:53.723Z,18.53
2019-01-05T23:17:53.138Z,12.30
2019-01-05T23:20:55.675Z,14.73
2019-01-05T23:23:55.148Z,12.77
2019-01-05T23:26:55.518Z,16.13
2019-01-05T23:29:55.785Z,11.53
2019-01-05T23:32:56.076Z,16.20
2019-01-05T23:35:55.544Z,13.47
2019-01-05T23:39:02.660Z,13.23
2019-01-05T23:41:50.652Z,12.97
2019-01-05T23:44:57.796Z,9.90
2019-01-05T23:48:03.880Z,11.13
2019-01-05T23:51:03.460Z,10.50
2019-01-05T23:54:03.349Z,11.73
